createdAt,value
2017-10-15T12:01:30.439Z,22.51
2017-10-15T12:03:58.343Z,22.59
2017-10-15T12:06:26.648Z,22.70
2017-10-15T12:08:55.481Z,22.68
2017-10-15T12:11:23.395Z,22.72
2017-10-15T12:13:51.307Z,22.53
2017-10-15T12:16:19.233Z,22.67
2017-10-15T12:18:47.141Z,22.51
2017-10-15T12:21:15.045Z,22.20
2017-10-15T12:23:43.366Z,22.30
2017-10-15T12:26:11.365Z,22.11
2017-10-15T12:28:39.282Z,22.19
2017-10-15T12:31:07.301Z,22.36
2017-10-15T12:33:35.216Z,22.47
2017-10-15T12:36:03.127Z,22.49
2017-10-15T12:38:31.051Z,22.34
2017-10-15T12:40:58.980Z,22.38
2017-10-15T12:44:20.345Z,22.32
2017-10-15T12:46:48.258Z,22.47
2017-10-15T12:49:16.157Z,22.50
2017-10-15T12:51:44.502Z,22.58
2017-10-15T12:54:12.425Z,22.73
2017-10-15T12:56:40.443Z,22.77
2017-10-15T12:59:08.364Z,23.05
2017-10-15T13:01:36.289Z,23.23
2017-10-15T13:04:04.293Z,23.28
2017-10-15T13:06:32.235Z,23.02
2017-10-15T13:09:00.191Z,23.16
2017-10-15T13:11:28.159Z,23.06
2017-10-15T13:13:56.108Z,23.01
2017-10-15T13:16:24.015Z,22.79
2017-10-15T13:18:52.337Z,22.78
2017-10-15T13:21:20.396Z,22.69
2017-10-15T13:23:48.303Z,22.73
2017-10-15T13:26:16.198Z,22.54
2017-10-15T13:28:44.521Z,22.71
2017-10-15T13:31:12.578Z,22.86
2017-10-15T13:33:40.488Z,22.69
2017-10-15T13:36:08.660Z,22.67
2017-10-15T13:38:36.600Z,22.47
2017-10-15T13:41:04.520Z,22.53
2017-10-15T13:43:32.452Z,22.44
2017-10-15T13:46:00.363Z,22.38
2017-10-15T13:48:28.268Z,22.40
2017-10-15T13:50:56.189Z,22.34
2017-10-15T13:53:24.140Z,22.27
2017-10-15T13:55:52.043Z,22.19
2017-10-15T13:58:20.366Z,22.10
2017-10-15T14:00:48.287Z,22.07
2017-10-15T14:03:16.201Z,22.11
2017-10-15T14:05:44.122Z,22.03
2017-10-15T14:08:12.411Z,22.08
2017-10-15T14:10:40.325Z,22.11
2017-10-15T14:13:08.294Z,22.12
2017-10-15T14:15:36.214Z,22.10
2017-10-15T14:18:04.111Z,22.03
2017-10-15T14:20:32.039Z,22.17
2017-10-15T14:23:00.376Z,22.28
2017-10-15T14:25:28.270Z,22.14
2017-10-15T14:27:56.603Z,22.09
2017-10-15T14:30:24.516Z,21.94
2017-10-15T14:32:52.441Z,21.95
2017-10-15T14:35:20.434Z,21.93
2017-10-15T14:37:48.336Z,21.94
2017-10-15T14:40:16.277Z,22.01
2017-10-15T14:42:44.206Z,22.07
2017-10-15T14:45:12.161Z,22.03
2017-10-15T14:47:40.099Z,22.00
2017-10-15T14:50:08.428Z,22.07
2017-10-15T14:52:36.348Z,21.93
2017-10-15T14:55:04.663Z,21.73
2017-10-15T14:57:32.583Z,21.80
2017-10-15T15:00:00.508Z,21.72
2017-10-15T15:02:28.413Z,21.70
2017-10-15T15:04:56.343Z,21.65
2017-10-15T15:07:24.265Z,21.59
2017-10-15T15:09:52.195Z,21.50
2017-10-15T15:12:20.125Z,21.58
2017-10-15T15:14:48.049Z,21.53
2017-10-15T15:17:15.948Z,21.66
2017-10-15T15:19:43.987Z,21.55
2017-10-15T15:22:11.895Z,21.47
2017-10-15T15:24:40.411Z,21.40
2017-10-15T15:27:08.360Z,21.38
2017-10-15T15:29:36.279Z,21.37
2017-10-15T15:32:04.181Z,21.34
2017-10-15T15:34:32.210Z,21.20
2017-10-15T15:37:00.183Z,21.24
2017-10-15T15:39:28.105Z,21.23
2017-10-15T15:41:56.082Z,21.09
2017-10-15T15:44:24.017Z,21.02
2017-10-15T15:46:51.941Z,20.98
2017-10-15T15:49:24.662Z,20.91
2017-10-15T15:51:52.572Z,20.80
2017-10-15T15:54:20.788Z,20.76
2017-10-15T15:56:48.736Z,20.64
2017-10-15T15:59:16.663Z,20.48
2017-10-15T16:01:44.667Z,20.42
2017-10-15T16:04:12.635Z,20.42
2017-10-15T16:06:40.568Z,20.24
2017-10-15T16:09:08.484Z,20.20
2017-10-15T16:11:36.431Z,20.20
2017-10-15T16:14:04.412Z,20.08
2017-10-15T16:16:32.316Z,19.99
2017-10-15T16:19:00.632Z,19.97
2017-10-15T16:21:28.582Z,19.85
2017-10-15T16:23:56.494Z,19.89
2017-10-15T16:26:24.427Z,19.80
2017-10-15T16:28:52.340Z,19.72
2017-10-15T16:31:20.256Z,19.65
2017-10-15T16:33:48.185Z,19.56
2017-10-15T16:36:16.140Z,19.47
2017-10-15T16:38:44.051Z,19.33
2017-10-15T16:41:12.960Z,19.29
2017-10-15T16:43:40.925Z,19.24
2017-10-15T16:46:08.970Z,19.14
2017-10-15T16:48:37.292Z,19.11
2017-10-15T16:51:05.251Z,19.02
2017-10-15T16:53:33.159Z,18.98
2017-10-15T16:56:01.163Z,18.95
2017-10-15T16:58:29.148Z,18.90
2017-10-15T17:00:57.075Z,18.83
2017-10-15T17:03:25.085Z,18.77
2017-10-15T17:05:52.988Z,18.74
2017-10-15T17:08:20.919Z,18.72
2017-10-15T17:10:48.846Z,18.58
2017-10-15T17:13:17.166Z,18.58
2017-10-15T17:15:45.091Z,18.56
2017-10-15T17:18:13.420Z,18.52
2017-10-15T17:20:41.321Z,18.45
2017-10-15T17:23:09.222Z,18.41
2017-10-15T17:25:37.168Z,18.39
2017-10-15T17:28:05.082Z,18.33
2017-10-15T17:30:33.008Z,18.24
2017-10-15T17:33:00.935Z,18.23
2017-10-15T17:35:28.852Z,18.19
2017-10-15T17:37:57.300Z,18.13
2017-10-15T17:40:25.248Z,18.08
2017-10-15T17:42:53.851Z,18.01
2017-10-15T17:45:21.775Z,18.03
2017-10-15T17:47:49.707Z,18.00
2017-10-15T17:50:18.132Z,17.94
2017-10-15T17:52:46.031Z,17.94
2017-10-15T17:55:13.964Z,17.94
2017-10-15T17:57:41.870Z,17.88
2017-10-15T18:00:09.770Z,17.84
2017-10-15T18:02:38.092Z,17.84
2017-10-15T18:05:06.036Z,17.82
2017-10-15T18:07:33.949Z,17.77
2017-10-15T18:10:01.880Z,17.72
2017-10-15T18:12:29.784Z,17.66
2017-10-15T18:14:57.706Z,17.68
2017-10-15T18:17:25.615Z,17.64
2017-10-15T18:19:53.524Z,17.61
2017-10-15T18:22:21.461Z,17.54
2017-10-15T18:24:49.822Z,17.47
2017-10-15T18:27:17.747Z,17.35
2017-10-15T18:29:46.058Z,17.34
2017-10-15T18:32:13.976Z,17.32
2017-10-15T18:34:42.285Z,17.28
2017-10-15T18:37:10.188Z,17.23
2017-10-15T18:39:38.124Z,17.18
2017-10-15T18:42:06.031Z,17.18
2017-10-15T18:44:33.959Z,17.14
2017-10-15T18:47:01.877Z,17.12
2017-10-15T18:49:29.787Z,17.06
2017-10-15T18:51:57.699Z,17.09
2017-10-15T18:54:25.667Z,17.01
2017-10-15T18:56:53.571Z,16.99
2017-10-15T18:59:21.884Z,16.97
2017-10-15T19:01:49.891Z,16.95
2017-10-15T19:04:17.849Z,16.85
2017-10-15T19:06:45.885Z,16.81
2017-10-15T19:09:13.905Z,16.82
2017-10-15T19:11:41.868Z,16.74
2017-10-15T19:14:10.201Z,16.70
2017-10-15T19:16:38.160Z,16.67
2017-10-15T19:19:06.070Z,16.61
2017-10-15T19:21:34.006Z,16.57
2017-10-15T19:24:02.021Z,16.56
2017-10-15T19:26:29.931Z,16.50
2017-10-15T19:28:57.836Z,16.46
2017-10-15T19:31:25.779Z,16.43
2017-10-15T19:33:53.679Z,16.39
2017-10-15T19:36:21.598Z,16.34
2017-10-15T19:38:49.924Z,16.35
2017-10-15T19:41:17.823Z,16.31
2017-10-15T19:43:45.774Z,16.31
2017-10-15T19:46:13.699Z,16.30
2017-10-15T19:48:41.622Z,16.28
2017-10-15T19:51:09.534Z,16.23
2017-10-15T19:53:37.540Z,16.31
2017-10-15T19:56:05.500Z,16.28
2017-10-15T19:58:33.433Z,16.28
2017-10-15T20:01:01.352Z,16.30
2017-10-15T20:03:29.310Z,16.34
2017-10-15T20:05:57.259Z,16.25
2017-10-15T20:08:25.188Z,16.25
2017-10-15T20:10:53.517Z,16.22
2017-10-15T20:13:21.453Z,16.21
2017-10-15T20:15:49.406Z,16.21
2017-10-15T20:18:17.315Z,16.17
2017-10-15T20:20:45.227Z,16.14
2017-10-15T20:23:13.551Z,16.05
2017-10-15T20:25:41.562Z,16.01
2017-10-15T20:28:09.460Z,15.97
2017-10-15T20:30:37.673Z,15.97
2017-10-15T20:33:05.671Z,15.97
2017-10-15T20:35:33.576Z,16.02
2017-10-15T20:38:01.604Z,16.04
2017-10-15T20:40:29.503Z,16.01
2017-10-15T20:42:57.811Z,16.03
2017-10-15T20:45:25.816Z,16.04
2017-10-15T20:47:53.779Z,15.95
2017-10-15T20:50:21.753Z,15.93
2017-10-15T20:52:49.697Z,15.96
2017-10-15T20:55:17.603Z,15.88
2017-10-15T20:57:45.533Z,15.82
2017-10-15T21:00:13.536Z,15.85
2017-10-15T21:02:41.440Z,15.82
2017-10-15T21:05:09.370Z,15.85
2017-10-15T21:07:37.300Z,15.81
2017-10-15T21:10:05.296Z,15.79
2017-10-15T21:12:33.199Z,15.77
2017-10-15T21:15:01.519Z,15.76
2017-10-15T21:17:29.516Z,15.71
2017-10-15T21:19:57.451Z,15.70
2017-10-15T21:22:25.732Z,15.75
2017-10-15T21:24:53.728Z,15.68
2017-10-15T21:27:21.652Z,15.70
2017-10-15T21:29:49.573Z,15.66
2017-10-15T21:32:17.499Z,15.68
2017-10-15T21:34:45.395Z,15.67
2017-10-15T21:37:13.428Z,15.65
2017-10-15T21:39:41.369Z,15.68
2017-10-15T21:42:09.677Z,15.65
2017-10-15T21:44:37.706Z,15.64
2017-10-15T21:47:05.640Z,15.61
2017-10-15T21:49:33.627Z,15.64
2017-10-15T21:52:01.590Z,15.59
2017-10-15T21:54:29.560Z,15.49
2017-10-15T21:56:57.475Z,15.48
2017-10-15T21:59:25.393Z,15.45
2017-10-15T22:01:53.376Z,15.40
2017-10-15T22:04:21.281Z,15.36
2017-10-15T22:06:49.199Z,15.34
2017-10-15T22:09:17.214Z,15.34
2017-10-15T22:11:45.120Z,15.36
2017-10-15T22:14:13.099Z,15.33
2017-10-15T22:16:41.066Z,15.28
2017-10-15T22:19:09.024Z,15.31
2017-10-15T22:21:42.637Z,15.25
2017-10-15T22:24:10.548Z,15.25
2017-10-15T22:26:38.847Z,15.24
2017-10-15T22:29:06.990Z,15.17
2017-10-15T22:31:35.455Z,15.13
2017-10-15T22:34:03.364Z,15.09
2017-10-15T22:36:31.505Z,15.11
2017-10-15T22:38:59.802Z,15.02
2017-10-15T22:41:28.105Z,15.04
2017-10-15T22:43:56.116Z,15.03
2017-10-15T22:46:24.033Z,15.03
2017-10-15T22:48:51.936Z,15.04
2017-10-15T22:51:19.974Z,15.02
2017-10-15T22:53:47.871Z,15.06
2017-10-15T22:56:15.809Z,15.03
2017-10-15T22:58:43.826Z,15.02
2017-10-15T23:01:11.804Z,14.97
2017-10-15T23:03:39.740Z,14.90
2017-10-15T23:06:07.664Z,14.88
2017-10-15T23:08:36.009Z,14.86
2017-10-15T23:11:03.993Z,14.84
2017-10-15T23:13:31.917Z,14.76
2017-10-15T23:15:59.837Z,14.72
2017-10-15T23:18:28.143Z,14.70
2017-10-15T23:20:56.112Z,14.71
2017-10-15T23:23:24.039Z,14.72
2017-10-15T23:25:52.368Z,14.63
2017-10-15T23:28:20.305Z,14.64
2017-10-15T23:30:48.608Z,14.65
2017-10-15T23:33:16.524Z,14.66
2017-10-15T23:35:44.451Z,14.62
2017-10-15T23:38:12.368Z,14.64
2017-10-15T23:40:40.290Z,14.67
2017-10-15T23:43:08.245Z,14.62
2017-10-15T23:45:36.152Z,14.55
2017-10-15T23:48:04.081Z,14.58
2017-10-15T23:50:32.100Z,14.50
2017-10-15T23:53:00.018Z,14.41
2017-10-15T23:55:27.987Z,14.39
2017-10-15T23:57:56.012Z,14.34
